createdAt,value
2022-10-17T00:05:23.351Z,101261.63
2022-10-17T00:11:26.375Z,101279.09
2022-10-17T00:17:39.443Z,101283.31
2022-10-17T00:23:41.343Z,101398.91
2022-10-17T00:29:44.258Z,101378.66
2022-10-17T00:35:46.340Z,101301.22
2022-10-17T00:41:48.347Z,101269.28
2022-10-17T00:48:04.292Z,101458.75
2022-10-17T00:54:07.238Z,101385.16
2022-10-17T01:00:12.067Z,101309.84
2022-10-17T01:06:14.125Z,101295.94
2022-10-17T01:12:25.432Z,101468.72
2022-10-17T01:18:33.937Z,101463.81
2022-10-17T01:25:01.009Z,101449.00
2022-10-17T01:31:16.699Z,101410.78
2022-10-17T01:37:28.759Z,101452.38
2022-10-17T01:44:05.413Z,101342.50
2022-10-17T01:50:17.027Z,101318.56
2022-10-17T01:56:22.202Z,101349.56
2022-10-17T02:02:26.693Z,101420.22
2022-10-17T02:08:43.059Z,101517.63
2022-10-17T02:14:56.832Z,101506.59
2022-10-17T02:21:08.771Z,101494.84
2022-10-17T02:27:19.941Z,101513.19
2022-10-17T02:33:28.042Z,101517.47
2022-10-17T02:39:31.911Z,101515.75
2022-10-17T02:45:36.969Z,101523.06
2022-10-17T02:51:57.032Z,101525.69
2022-10-17T02:58:13.347Z,101491.28
2022-10-17T03:04:15.842Z,101337.69
2022-10-17T03:10:18.485Z,101464.69
2022-10-17T03:16:20.269Z,101543.09
2022-10-17T03:22:22.118Z,101486.56
2022-10-17T03:28:24.354Z,101540.50
2022-10-17T03:34:26.266Z,101510.47
2022-10-17T03:40:28.467Z,101525.22
2022-10-17T03:46:30.403Z,101551.22
2022-10-17T03:52:32.226Z,101537.88
2022-10-17T03:58:34.013Z,101516.69
2022-10-17T04:04:35.884Z,101535.03
2022-10-17T04:10:37.817Z,101555.00
2022-10-17T04:16:39.796Z,101550.50
2022-10-17T04:22:41.597Z,101544.16
2022-10-17T04:28:43.396Z,101515.22
2022-10-17T04:34:49.176Z,101563.31
2022-10-17T04:40:51.060Z,101557.25
2022-10-17T04:46:52.949Z,101529.97
2022-10-17T04:52:54.832Z,101538.59
2022-10-17T04:58:59.562Z,101525.09
2022-10-17T05:05:01.900Z,101558.56
2022-10-17T05:11:22.371Z,101494.06
2022-10-17T05:17:34.592Z,101593.09
2022-10-17T06:03:37.037Z,101650.94
2022-10-17T07:19:50.713Z,101661.41
2022-10-17T07:33:08.209Z,101687.50
2022-10-17T07:46:42.988Z,101524.47
2022-10-17T07:52:51.978Z,101692.66
2022-10-17T07:59:08.251Z,101693.13
2022-10-17T09:13:51.481Z,101531.75
2022-10-17T09:20:25.072Z,101647.78
2022-10-17T15:42:11.892Z,101452.66
2022-10-17T15:56:00.330Z,101454.63
2022-10-17T16:09:41.814Z,101486.13
2022-10-17T16:15:50.541Z,101462.19
2022-10-17T16:35:37.594Z,101484.38
2022-10-17T16:41:58.718Z,101495.09
2022-10-17T16:54:43.074Z,101513.50
2022-10-17T17:07:14.880Z,101519.78
2022-10-17T17:13:40.990Z,101548.75
2022-10-17T17:20:12.725Z,101495.22
2022-10-17T17:26:17.864Z,101521.75
2022-10-17T17:32:27.908Z,101596.41
2022-10-17T17:38:49.731Z,101645.19
2022-10-17T17:59:45.960Z,101508.13
2022-10-17T18:06:16.907Z,101646.69
2022-10-17T18:12:32.641Z,101494.69
2022-10-17T18:18:42.462Z,101490.19
2022-10-17T18:24:50.436Z,101585.00
2022-10-17T18:30:52.417Z,101467.44
2022-10-17T18:36:58.163Z,101506.19
2022-10-17T18:43:04.478Z,101500.56
2022-10-17T18:49:07.849Z,101496.91
2022-10-17T19:01:33.083Z,101512.00
2022-10-17T19:07:41.812Z,101503.19
2022-10-17T19:13:47.982Z,101493.09
2022-10-17T19:20:02.451Z,101495.16
2022-10-17T19:26:12.505Z,101648.88
2022-10-17T19:32:29.125Z,101567.06
2022-10-17T19:52:02.032Z,101496.88
2022-10-17T19:58:15.764Z,101556.72
2022-10-17T20:04:22.106Z,101563.44
2022-10-17T20:10:28.851Z,101601.84
2022-10-17T20:23:18.567Z,101484.72
2022-10-17T20:29:30.062Z,101473.81
2022-10-17T20:35:33.898Z,101470.91
2022-10-17T20:41:35.976Z,101480.41
2022-10-17T20:47:52.283Z,101462.78
2022-10-17T20:59:59.467Z,101568.19
2022-10-17T21:06:07.649Z,101571.22
2022-10-17T21:12:49.939Z,101492.91
2022-10-17T21:18:59.337Z,101466.63
2022-10-17T21:25:01.846Z,101461.66
2022-10-17T21:31:20.698Z,101462.34
2022-10-17T21:37:29.516Z,101454.91
2022-10-17T21:43:40.145Z,101450.88
2022-10-17T21:49:43.916Z,101464.78
2022-10-17T21:55:46.052Z,101488.69
2022-10-17T22:01:50.433Z,101485.66
2022-10-17T22:08:01.411Z,101544.81
2022-10-17T22:20:30.135Z,101536.84
2022-10-17T22:26:45.146Z,101451.31
2022-10-17T22:33:25.891Z,101421.34
2022-10-17T22:39:36.182Z,101440.28
2022-10-17T22:45:40.726Z,101409.66
2022-10-17T22:51:46.169Z,101426.75
2022-10-17T22:57:51.438Z,101388.28
2022-10-17T23:04:00.045Z,101426.88
2022-10-17T23:10:02.358Z,101523.66
2022-10-17T23:16:05.537Z,101585.03
2022-10-17T23:22:10.870Z,101525.88
2022-10-17T23:28:15.847Z,101523.84
2022-10-17T23:34:22.142Z,101517.78
2022-10-17T23:40:29.568Z,101471.00
2022-10-17T23:46:49.933Z,101394.00
2022-10-17T23:52:55.380Z,101428.81
2022-10-17T23:59:06.016Z,101374.78
